Time;durP1;ratioP1;P1;durP2;ratioP2;P2;SDS_P1;SDS_P2;PMS_P1;PMS_P2;Temp;Humidity;BMP_temperature;BMP_pressure;BME280_temperature;BME280_humidity;BME280_pressure;Samples;Min_cycle;Max_cycle;Signal;HPM_P1;HPM_P2
2024/03/04 00:00:39;;;;;;;55.80;36.20;;;;;;;6.46;78.74;100159.49;103186;1314;22694;-58
2024/03/04 00:03:05;;;;;;;59.80;33.70;;;;;;;6.49;78.47;100158.61;103073;1298;22568;-59
2024/03/04 00:05:34;;;;;;;62.00;36.40;;;;;;;6.52;78.70;100158.59;103141;1311;26399;-58
2024/03/04 00:07:59;;;;;;;58.10;36.30;;;;;;;6.54;78.57;100159.42;103705;1315;22734;-60
2024/03/04 00:10:25;;;;;;;59.50;35.80;;;;;;;6.57;78.33;100160.27;103188;1314;25464;-58
2024/03/04 00:12:51;;;;;;;56.20;35.50;;;;;;;6.61;79.55;100163.33;103126;1297;25558;-60
2024/03/04 00:15:16;;;;;;;54.80;35.50;;;;;;;6.65;78.85;100162.61;103144;1313;22615;-60
2024/03/04 00:17:42;;;;;;;51.60;33.90;;;;;;;6.67;78.69;100162.77;103292;1311;22560;-59
2024/03/04 00:20:09;;;;;;;58.30;36.10;;;;;;;6.68;78.66;100162.92;103145;1310;25071;-60
2024/03/04 00:22:35;;;;;;;55.50;35.30;;;;;;;6.72;78.32;100162.56;103243;1297;22598;-63
2024/03/04 00:25:01;;;;;;;61.40;34.90;;;;;;;6.74;78.16;100164.27;103156;1314;25264;-60
2024/03/04 00:27:27;;;;;;;58.00;37.00;;;;;;;6.77;78.21;100163.02;103152;1315;22572;-60
2024/03/04 00:29:53;;;;;;;53.70;34.40;;;;;;;6.79;78.45;100162.81;103176;1311;23270;-60
2024/03/04 00:32:18;;;;;;;50.70;33.80;;;;;;;6.81;78.41;100164.00;103122;1312;22658;-58
2024/03/04 00:34:44;;;;;;;54.20;34.50;;;;;;;6.83;78.13;100161.93;103034;1305;26051;-59
2024/03/04 00:37:10;;;;;;;54.80;35.50;;;;;;;6.85;78.20;100162.77;103175;1310;25066;-59
2024/03/04 00:39:40;;;;;;;61.30;37.80;;;;;;;6.86;78.43;100164.65;103083;1312;22871;-59
2024/03/04 00:42:06;;;;;;;51.70;34.50;;;;;;;6.87;78.50;100165.33;103558;1314;22588;-60
2024/03/04 00:44:32;;;;;;;62.40;37.70;;;;;;;6.87;78.43;100166.02;103249;1297;22566;-59
2024/03/04 00:46:58;;;;;;;51.90;34.50;;;;;;;6.87;78.25;100164.45;103313;1313;22694;-59
2024/03/04 00:49:24;;;;;;;51.50;34.60;;;;;;;6.88;78.56;100168.23;103059;1314;22601;-60
2024/03/04 00:51:50;;;;;;;53.40;33.60;;;;;;;6.89;78.24;100167.02;103134;1315;22628;-59
2024/03/04 00:54:15;;;;;;;56.80;35.30;;;;;;;6.90;78.45;100166.33;103160;1305;24139;-59
2024/03/04 00:56:41;;;;;;;56.90;34.80;;;;;;;6.87;78.32;100168.23;103053;1309;25786;-60
2024/03/04 00:59:07;;;;;;;58.40;36.00;;;;;;;6.87;78.31;100167.21;103190;1297;24392;-59
2024/03/04 01:01:33;;;;;;;51.40;32.80;;;;;;;6.87;78.47;100165.83;103118;1313;22818;-60
2024/03/04 01:03:59;;;;;;;58.50;36.10;;;;;;;6.86;78.62;100166.19;103162;1305;22580;-58
2024/03/04 01:06:27;;;;;;;52.20;34.30;;;;;;;6.85;78.57;100168.42;103196;1315;23935;-60
2024/03/04 01:08:54;;;;;;;54.30;33.40;;;;;;;6.82;78.55;100168.96;104070;1301;22605;-60
2024/03/04 01:11:19;;;;;;;56.30;34.80;;;;;;;6.79;78.76;100170.52;103994;1314;25254;-59
2024/03/04 01:13:45;;;;;;;53.40;35.00;;;;;;;6.75;78.73;100168.36;103153;1297;24820;-60
2024/03/04 01:16:11;;;;;;;58.90;36.20;;;;;;;6.73;79.04;100171.63;103139;1315;22681;-60
2024/03/04 01:18:37;;;;;;;58.60;34.50;;;;;;;6.70;79.10;100166.17;103138;1307;25828;-58
2024/03/04 01:21:03;;;;;;;52.50;34.30;;;;;;;6.68;78.93;100165.84;103106;1301;22596;-58
2024/03/04 01:23:29;;;;;;;64.90;38.10;;;;;;;6.68;78.97;100170.29;103142;1311;22824;-60
2024/03/04 01:25:55;;;;;;;55.90;34.30;;;;;;;6.68;79.27;100169.44;103095;1298;22913;-58
2024/03/04 01:28:23;;;;;;;61.30;36.60;;;;;;;6.65;78.90;100166.38;103196;1314;22597;-59
2024/03/04 01:30:55;;;;;;;58.40;37.30;;;;;;;6.65;79.18;100165.52;103147;1315;22584;-60
2024/03/04 01:33:20;;;;;;;64.00;37.10;;;;;;;6.64;78.98;100165.87;103207;1315;22695;-59
2024/03/04 01:35:46;;;;;;;65.00;38.70;;;;;;;6.62;79.00;100165.70;103089;1305;24798;-58
2024/03/04 01:38:11;;;;;;;57.20;35.40;;;;;;;6.61;78.99;100168.63;103164;1315;23069;-60
2024/03/04 01:40:37;;;;;;;59.00;35.40;;;;;;;6.62;79.19;100168.11;103171;1310;22867;-58
2024/03/04 01:43:03;;;;;;;62.60;37.50;;;;;;;6.62;79.39;100171.70;103081;1305;26526;-60
2024/03/04 01:45:29;;;;;;;60.00;37.60;;;;;;;6.60;79.65;100175.48;103103;1298;25380;-59
2024/03/04 01:48:04;;;;;;;59.00;37.90;;;;;;;6.57;79.39;100177.39;103156;1302;22628;-58
2024/03/04 01:50:39;;;;;;;58.90;39.00;;;;;;;6.56;79.79;100180.30;103834;1314;22600;-59
2024/03/04 01:53:06;;;;;;;57.50;37.10;;;;;;;6.54;79.41;100179.30;103474;1315;22568;-58
2024/03/04 01:55:38;;;;;;;62.20;38.20;;;;;;;6.56;79.88;100180.82;103113;1315;22583;-59
2024/03/04 01:58:05;;;;;;;61.40;37.00;;;;;;;6.55;80.06;100182.04;103292;1313;22594;-62
2024/03/04 02:00:32;;;;;;;62.70;39.90;;;;;;;6.53;79.98;100182.21;103204;1309;22696;-61
2024/03/04 02:02:59;;;;;;;59.40;38.80;;;;;;;6.54;79.87;100178.44;103126;1311;22683;-60
2024/03/04 02:05:25;;;;;;;64.40;40.10;;;;;;;6.55;79.90;100177.58;103283;1305;23985;-60
2024/03/04 02:07:50;;;;;;;58.40;40.40;;;;;;;6.54;79.81;100177.23;103640;1314;22708;-60
2024/03/04 02:10:16;;;;;;;59.50;38.40;;;;;;;6.54;79.89;100180.83;103169;1308;23038;-60
2024/03/04 02:12:42;;;;;;;61.60;39.30;;;;;;;6.55;79.93;100175.70;103145;1315;22596;-60
2024/03/04 02:15:08;;;;;;;62.20;37.70;;;;;;;6.54;80.04;100178.95;103139;1307;24386;-60
2024/03/04 02:17:34;;;;;;;63.80;38.50;;;;;;;6.52;79.98;100183.07;103212;1314;22574;-60
2024/03/04 02:20:12;;;;;;;59.40;37.50;;;;;;;6.52;79.87;100182.39;103482;1315;26904;-57
2024/03/04 02:22:38;;;;;;;69.50;37.90;;;;;;;6.51;79.91;100186.85;103480;1315;22569;-59
2024/03/04 02:25:05;;;;;;;58.20;38.70;;;;;;;6.49;79.86;100188.92;103229;1292;23364;-60
2024/03/04 02:27:31;;;;;;;61.70;38.20;;;;;;;6.47;79.85;100189.61;103468;1314;22583;-59
2024/03/04 02:29:57;;;;;;;64.90;39.70;;;;;;;6.44;79.98;100186.38;103390;1300;22571;-59
2024/03/04 02:32:23;;;;;;;57.20;36.60;;;;;;;6.43;80.38;100187.41;103244;1314;22565;-60
2024/03/04 02:34:49;;;;;;;63.50;40.30;;;;;;;6.39;80.13;100188.98;103151;1315;26672;-60
2024/03/04 02:37:15;;;;;;;60.10;39.80;;;;;;;6.36;80.28;100189.52;103170;1308;22664;-61
2024/03/04 02:39:41;;;;;;;65.40;40.40;;;;;;;6.31;80.45;100188.51;103095;1300;22633;-58
2024/03/04 02:42:07;;;;;;;65.10;40.20;;;;;;;6.28;80.32;100189.73;103151;1313;22963;-56
2024/03/04 02:44:33;;;;;;;58.10;37.30;;;;;;;6.25;80.22;100185.62;103220;1293;22558;-60
2024/03/04 02:46:59;;;;;;;69.10;40.30;;;;;;;6.23;80.21;100186.00;103197;1297;22621;-59
2024/03/04 02:49:25;;;;;;;60.20;36.90;;;;;;;6.22;80.10;100190.81;103075;1316;22570;-60
2024/03/04 02:51:50;;;;;;;60.00;38.00;;;;;;;6.20;80.18;100192.19;103123;1295;24246;-60
2024/03/04 02:54:16;;;;;;;56.80;36.60;;;;;;;6.17;80.40;100188.61;103122;1315;23977;-58
2024/03/04 02:56:42;;;;;;;56.50;36.80;;;;;;;6.11;80.34;100186.41;103075;1297;22583;-59
2024/03/04 02:59:08;;;;;;;61.80;37.10;;;;;;;6.04;80.19;100189.35;103089;1303;24262;-60
2024/03/04 03:01:34;;;;;;;55.40;35.50;;;;;;;5.97;80.22;100188.18;103173;1314;22703;-60
2024/03/04 03:03:59;;;;;;;62.40;34.10;;;;;;;5.90;80.28;100188.89;103194;1297;26846;-58
2024/03/04 03:06:28;;;;;;;51.30;33.70;;;;;;;5.84;80.19;100189.56;103141;1305;22591;-59
2024/03/04 03:08:57;;;;;;;56.40;34.10;;;;;;;5.76;80.17;100189.60;103884;1307;25332;-59
2024/03/04 03:11:24;;;;;;;54.70;34.20;;;;;;;5.68;80.24;100193.07;103216;1307;22572;-57
2024/03/04 03:13:49;;;;;;;55.60;33.80;;;;;;;5.58;80.26;100193.77;103602;1304;22569;-59
2024/03/04 03:16:18;;;;;;;54.20;32.90;;;;;;;5.48;80.13;100192.09;103198;1297;22580;-59
2024/03/04 03:18:44;;;;;;;53.30;35.20;;;;;;;5.39;80.18;100196.73;103191;1309;22696;-60
2024/03/04 03:21:12;;;;;;;55.50;34.40;;;;;;;5.32;80.41;100202.37;103093;1315;24020;-60
2024/03/04 03:23:40;;;;;;;57.40;33.40;;;;;;;5.24;80.37;100201.87;103073;1300;23853;-59
2024/03/04 03:26:06;;;;;;;54.10;32.40;;;;;;;5.14;80.51;100202.24;103206;1292;22591;-59
2024/03/04 03:28:32;;;;;;;56.10;34.10;;;;;;;5.05;80.32;100203.10;103125;1315;23228;-60
2024/03/04 03:30:57;;;;;;;55.90;34.80;;;;;;;4.99;80.41;100206.17;103036;1315;22692;-58
2024/03/04 03:33:23;;;;;;;53.20;33.20;;;;;;;4.92;80.46;100202.23;103134;1315;26395;-59
2024/03/04 03:35:48;;;;;;;53.40;34.40;;;;;;;4.84;80.37;100203.60;103207;1315;22617;-58
2024/03/04 03:38:14;;;;;;;55.20;34.30;;;;;;;4.78;80.50;100212.14;103117;1300;22607;-60
2024/03/04 03:40:40;;;;;;;57.30;33.30;;;;;;;4.73;80.64;100208.71;103100;1308;22596;-60
2024/03/04 03:43:05;;;;;;;57.50;34.80;;;;;;;4.69;80.82;100210.42;103180;1310;22623;-60
2024/03/04 03:45:33;;;;;;;58.50;36.20;;;;;;;4.65;80.84;100212.48;103135;1314;22582;-59
2024/03/04 03:47:59;;;;;;;53.80;33.80;;;;;;;4.59;80.77;100207.88;103175;1298;23839;-60
2024/03/04 03:50:24;;;;;;;62.60;35.70;;;;;;;4.53;80.56;100208.03;103170;1308;25421;-60
2024/03/04 03:52:49;;;;;;;55.60;34.30;;;;;;;4.49;80.95;100206.48;103226;1315;24241;-59
2024/03/04 03:55:15;;;;;;;56.10;34.20;;;;;;;4.42;80.94;100207.49;103145;1315;25785;-60
2024/03/04 03:57:42;;;;;;;58.90;36.50;;;;;;;4.34;80.75;100206.61;103138;1297;22583;-60
2024/03/04 04:00:10;;;;;;;54.90;34.20;;;;;;;4.29;80.87;100208.14;103154;1293;23400;-59
2024/03/04 04:02:36;;;;;;;56.40;35.80;;;;;;;4.28;81.03;100213.08;103614;1310;22529;-58
2024/03/04 04:05:02;;;;;;;54.20;33.40;;;;;;;4.24;80.92;100213.06;103004;1315;24356;-59
2024/03/04 04:07:28;;;;;;;59.20;35.40;;;;;;;4.19;80.76;100212.71;103043;1298;23333;-59
2024/03/04 04:09:53;;;;;;;57.10;35.20;;;;;;;4.17;80.82;100211.17;103174;1314;22615;-59
2024/03/04 04:12:19;;;;;;;60.00;35.60;;;;;;;4.14;81.05;100209.99;103197;1314;22565;-59
2024/03/04 04:14:45;;;;;;;59.30;36.30;;;;;;;4.08;80.90;100210.65;103167;1313;22915;-60
2024/03/04 04:17:12;;;;;;;61.70;34.30;;;;;;;4.05;80.94;100210.98;103198;1294;22708;-58
2024/03/04 04:19:39;;;;;;;52.50;32.60;;;;;;;3.99;80.89;100212.84;103340;1303;22564;-59
2024/03/04 04:22:05;;;;;;;56.40;33.50;;;;;;;3.93;80.77;100213.32;104932;1315;22719;-60
2024/03/04 04:24:31;;;;;;;55.30;34.10;;;;;;;3.89;80.83;100212.27;103210;1315;22552;-58
2024/03/04 04:26:57;;;;;;;60.00;34.90;;;;;;;3.85;81.02;100211.40;103082;1303;22695;-59
2024/03/04 04:29:23;;;;;;;62.40;35.70;;;;;;;3.84;80.96;100212.26;104625;1297;25629;-58
2024/03/04 04:31:48;;;;;;;59.10;34.30;;;;;;;3.83;81.09;100211.23;103170;1303;24702;-60
2024/03/04 04:34:14;;;;;;;52.40;31.70;;;;;;;3.82;81.02;100212.23;103058;1310;22711;-58
2024/03/04 04:36:50;;;;;;;59.40;34.10;;;;;;;3.83;81.33;100213.95;103183;1315;24365;-59
2024/03/04 04:39:17;;;;;;;52.00;33.60;;;;;;;3.81;81.30;100215.64;102973;1308;25525;-60
2024/03/04 04:41:45;;;;;;;58.40;33.10;;;;;;;3.80;81.43;100220.92;103161;1294;22655;-60
2024/03/04 04:44:11;;;;;;;54.00;33.00;;;;;;;3.79;81.52;100216.15;103155;1315;24318;-60
2024/03/04 04:46:37;;;;;;;56.90;34.50;;;;;;;3.77;81.50;100215.11;103151;1308;22599;-59
2024/03/04 04:49:04;;;;;;;48.50;32.10;;;;;;;3.75;81.50;100217.99;102975;1301;22568;-59
2024/03/04 04:51:30;;;;;;;50.90;33.10;;;;;;;3.71;81.52;100221.89;103068;1315;23206;-60
2024/03/04 04:53:56;;;;;;;57.70;35.90;;;;;;;3.67;81.79;100221.70;103207;1310;23032;-60
2024/03/04 04:56:22;;;;;;;59.60;33.40;;;;;;;3.63;81.93;100224.27;103262;1314;25551;-60
2024/03/04 04:58:48;;;;;;;60.70;33.90;;;;;;;3.60;81.86;100224.94;103247;1291;22578;-59
2024/03/04 05:01:24;;;;;;;56.40;34.30;;;;;;;3.56;81.67;100227.30;103180;1301;22579;-59
2024/03/04 05:03:51;;;;;;;52.40;34.00;;;;;;;3.53;81.71;100231.88;103903;1314;22890;-59
2024/03/04 05:06:18;;;;;;;51.70;32.70;;;;;;;3.52;81.75;100238.01;103085;1308;24244;-59
2024/03/04 05:08:44;;;;;;;;;;;;;;;3.49;81.72;100241.90;103204;1297;22683;-56
2024/03/04 05:11:09;;;;;;;49.70;32.50;;;;;;;3.46;81.75;100250.23;103137;1307;25548;-59
2024/03/04 05:13:35;;;;;;;51.50;33.20;;;;;;;3.43;81.56;100254.81;103241;1314;24298;-60
2024/03/04 05:16:00;;;;;;;58.40;34.20;;;;;;;3.40;81.71;100256.84;103167;1307;23491;-59
2024/03/04 05:18:26;;;;;;;57.00;34.80;;;;;;;3.35;81.59;100261.73;103200;1291;24313;-60
2024/03/04 05:20:52;;;;;;;54.60;33.80;;;;;;;3.32;81.60;100268.70;103234;1315;22688;-60
2024/03/04 05:23:18;;;;;;;61.30;36.10;;;;;;;3.29;81.54;100274.29;103202;1310;22721;-59
2024/03/04 05:25:43;;;;;;;61.40;35.40;;;;;;;3.28;81.51;100270.70;103216;1314;25405;-58
2024/03/04 05:28:08;;;;;;;57.60;34.90;;;;;;;3.29;81.87;100271.91;103143;1292;24323;-60
2024/03/04 05:30:34;;;;;;;54.60;35.20;;;;;;;3.28;82.01;100274.63;103150;1292;22688;-59
2024/03/04 05:32:59;;;;;;;56.60;34.50;;;;;;;3.28;81.81;100280.08;103111;1308;25552;-59
2024/03/04 05:35:25;;;;;;;52.30;33.30;;;;;;;3.31;82.30;100282.31;103155;1315;22566;-59
2024/03/04 05:37:50;;;;;;;55.40;35.60;;;;;;;3.33;82.24;100286.25;103140;1315;25830;-60
2024/03/04 05:40:21;;;;;;;52.50;33.90;;;;;;;3.37;82.24;100286.63;103050;1299;25545;-59
2024/03/04 05:42:46;;;;;;;51.10;33.20;;;;;;;3.42;82.19;100292.97;103172;1315;25543;-60
2024/03/04 05:45:12;;;;;;;54.00;32.20;;;;;;;3.44;82.35;100291.62;103113;1313;26362;-60
2024/03/04 05:47:38;;;;;;;71.50;37.10;;;;;;;3.50;82.86;100290.98;103083;1301;22660;-60
2024/03/04 05:50:05;;;;;;;54.00;35.00;;;;;;;3.58;83.29;100290.02;103165;1295;25769;-60
2024/03/04 05:52:32;;;;;;;53.80;32.60;;;;;;;3.65;83.48;100291.76;104268;1309;22589;-61
2024/03/04 05:54:58;;;;;;;51.50;33.50;;;;;;;3.74;83.87;100292.48;103122;1313;25443;-59
2024/03/04 05:57:24;;;;;;;60.70;37.80;;;;;;;3.82;83.98;100295.44;107075;1308;22365;-60
2024/03/04 05:59:49;;;;;;;54.90;34.60;;;;;;;3.86;83.84;100293.25;107147;1296;22257;-61
2024/03/04 06:02:15;;;;;;;60.10;35.00;;;;;;;3.91;83.68;100296.69;104597;1310;22575;-60
2024/03/04 06:04:40;;;;;;;55.40;35.60;;;;;;;4.00;84.03;100298.45;103119;1307;23297;-60
2024/03/04 06:07:06;;;;;;;58.70;34.20;;;;;;;4.07;84.27;100300.54;103176;1307;25474;-60
2024/03/04 06:09:31;;;;;;;54.50;34.70;;;;;;;4.13;84.53;100299.37;103130;1292;22851;-60
2024/03/04 06:11:57;;;;;;;56.90;33.20;;;;;;;4.17;84.68;100301.59;103170;1315;24311;-59
2024/03/04 06:14:23;;;;;;;61.50;35.80;;;;;;;4.22;84.67;100305.36;103080;1315;25376;-60
2024/03/04 06:16:49;;;;;;;55.30;34.50;;;;;;;4.28;84.49;100311.02;103145;1301;22575;-60
2024/03/04 06:19:15;;;;;;;52.60;34.00;;;;;;;4.35;84.43;100314.80;103020;1309;24256;-58
2024/03/04 06:21:42;;;;;;;60.30;36.00;;;;;;;4.44;84.51;100316.89;103072;1304;24251;-59
2024/03/04 06:24:08;;;;;;;56.40;33.50;;;;;;;4.52;84.78;100320.52;102889;1310;22605;-57
2024/03/04 06:26:33;;;;;;;54.20;30.50;;;;;;;4.57;84.99;100321.73;103103;1307;22590;-59
2024/03/04 06:28:59;;;;;;;48.00;31.60;;;;;;;4.63;85.04;100329.42;103046;1308;22659;-55
2024/03/04 06:31:24;;;;;;;46.20;30.50;;;;;;;4.70;85.13;100330.45;102991;1297;25316;-58
2024/03/04 06:33:49;;;;;;;47.10;29.10;;;;;;;4.79;85.11;100334.23;102947;1315;23460;-58
2024/03/04 06:36:15;;;;;;;42.00;28.50;;;;;;;4.87;85.48;100337.16;102986;1310;22570;-58
2024/03/04 06:38:40;;;;;;;42.30;28.20;;;;;;;4.96;85.29;100340.42;103048;1297;23182;-58
2024/03/04 06:41:07;;;;;;;45.30;28.90;;;;;;;5.05;85.04;100333.27;103129;1294;25405;-58
2024/03/04 06:43:33;;;;;;;42.00;26.10;;;;;;;5.17;85.29;100338.41;103206;1315;24599;-58
2024/03/04 06:46:02;;;;;;;39.90;24.50;;;;;;;5.24;85.08;100340.11;106460;1307;25357;-58
2024/03/04 06:48:28;;;;;;;35.30;24.60;;;;;;;5.30;85.15;100341.83;103041;1307;22578;-60
2024/03/04 06:50:53;;;;;;;39.10;24.20;;;;;;;5.36;85.03;100347.81;103097;1308;23337;-58
2024/03/04 06:53:19;;;;;;;36.80;22.40;;;;;;;5.41;85.03;100351.58;103043;1300;25379;-57
2024/03/04 06:55:45;;;;;;;38.10;22.70;;;;;;;5.48;84.95;100354.66;103100;1313;22724;-57
2024/03/04 06:58:10;;;;;;;33.10;22.00;;;;;;;5.60;84.95;100355.18;102855;1301;24366;-59
2024/03/04 07:00:35;;;;;;;29.50;21.00;;;;;;;5.68;84.96;100359.64;102828;1292;22599;-59
2024/03/04 07:03:01;;;;;;;34.00;21.00;;;;;;;5.71;84.74;100363.20;102823;1314;25329;-58
2024/03/04 07:05:27;;;;;;;32.60;21.20;;;;;;;5.72;84.72;100361.66;102818;1301;25330;-57
2024/03/04 07:07:52;;;;;;;32.90;20.80;;;;;;;5.74;84.64;100362.00;102683;1302;23319;-58
2024/03/04 07:10:18;;;;;;;34.00;19.70;;;;;;;5.78;84.45;100365.06;102822;1308;22616;-59
2024/03/04 07:12:43;;;;;;;31.10;20.30;;;;;;;5.86;84.52;100365.75;102802;1297;22595;-58
2024/03/04 07:15:09;;;;;;;29.10;20.00;;;;;;;5.96;84.42;100367.14;102830;1301;25517;-59
2024/03/04 07:17:34;;;;;;;36.00;20.60;;;;;;;6.10;84.25;100369.52;102889;1315;22606;-56
2024/03/04 07:20:00;;;;;;;34.70;18.80;;;;;;;6.17;84.24;100371.73;102903;1308;22612;-57
2024/03/04 07:22:28;;;;;;;33.90;19.30;;;;;;;6.22;83.92;100375.98;102827;1297;22617;-58
2024/03/04 07:24:54;;;;;;;28.80;19.90;;;;;;;6.32;84.30;100375.95;102957;1314;25273;-57
2024/03/04 07:27:19;;;;;;;29.50;18.00;;;;;;;6.45;84.00;100374.20;102774;1292;27135;-59
2024/03/04 07:29:45;;;;;;;24.00;17.00;;;;;;;6.64;84.11;100372.09;102861;1314;23558;-57
2024/03/04 07:32:13;;;;;;;28.20;18.20;;;;;;;6.81;84.14;100369.24;102887;1297;22909;-59
2024/03/04 07:34:38;;;;;;;26.10;17.60;;;;;;;6.87;83.98;100368.52;102865;1304;22565;-57
2024/03/04 07:37:04;;;;;;;29.10;17.80;;;;;;;6.97;83.86;100367.27;102891;1307;24245;-57
2024/03/04 07:39:29;;;;;;;26.90;17.60;;;;;;;7.17;83.80;100365.28;102857;1307;22579;-59
2024/03/04 07:41:55;;;;;;;22.30;16.00;;;;;;;7.39;83.32;100366.14;102889;1297;24664;-59
2024/03/04 07:44:20;;;;;;;27.40;17.10;;;;;;;7.50;82.96;100372.23;102919;1308;22586;-58
2024/03/04 07:46:48;;;;;;;27.60;17.60;;;;;;;7.49;82.46;100372.06;102879;1315;23985;-58
2024/03/04 07:49:14;;;;;;;26.60;16.90;;;;;;;7.57;82.64;100371.67;102742;1307;22601;-59
2024/03/04 07:51:39;;;;;;;29.50;16.90;;;;;;;7.81;82.90;100366.47;102941;1291;24286;-59
2024/03/04 07:54:05;;;;;;;25.10;16.50;;;;;;;8.34;82.79;100367.84;102867;1304;23428;-59
2024/03/04 07:56:42;;;;;;;30.80;16.70;;;;;;;8.63;81.90;100369.74;102892;1300;22600;-59
2024/03/04 07:59:07;;;;;;;22.40;16.60;;;;;;;8.64;81.69;100370.77;102932;1311;22680;-59
2024/03/04 08:01:33;;;;;;;22.30;16.60;;;;;;;8.88;82.39;100375.61;102923;1293;24444;-59
2024/03/04 08:03:59;;;;;;;22.80;15.80;;;;;;;9.62;82.88;100375.18;102942;1314;22948;-59
2024/03/04 08:06:46;;;;;;;40.90;17.10;;;;;;;10.41;82.46;100382.23;102971;1315;25440;-58
2024/03/04 08:09:55;;;;;;;53.10;17.50;;;;;;;11.31;81.58;100383.08;103198;1319;22753;-60
2024/03/04 08:12:31;;;;;;;;;;;;;;;;;;;;;
2024/03/04 08:15:09;;;;;;;33.00;17.20;;;;;;;12.24;78.79;100388.91;104597;1316;24383;-60
2024/03/04 08:17:40;;;;;;;71.40;19.70;;;;;;;12.08;77.51;100389.33;102234;1309;23781;-59
2024/03/04 08:20:15;;;;;;;243.60;28.10;;;;;;;12.09;76.98;100391.88;102154;1323;25330;-60
2024/03/04 08:23:07;;;;;;;231.00;27.50;;;;;;;12.55;76.63;100391.15;102086;1303;22866;-60
2024/03/04 08:25:39;;;;;;;238.10;27.30;;;;;;;12.68;75.01;100389.94;102092;1322;24807;-59
2024/03/04 08:28:36;;;;;;;260.20;31.60;;;;;;;12.85;75.98;100391.70;102136;1315;22931;-60
2024/03/04 08:31:08;;;;;;;114.70;23.70;;;;;;;12.90;75.05;100390.15;101815;1323;22975;-59
2024/03/04 08:33:33;;;;;;;296.10;36.40;;;;;;;13.01;76.09;100395.36;102034;1300;24317;-59
2024/03/04 08:36:03;;;;;;;258.80;30.10;;;;;;;13.69;74.95;100399.81;102147;1309;23780;-60
2024/03/04 08:38:28;;;;;;;313.80;34.20;;;;;;;13.80;72.88;100404.84;102181;1319;22595;-59
2024/03/04 08:41:04;;;;;;;87.60;26.00;;;;;;;13.59;71.89;100407.24;102084;1323;22798;-58
2024/03/04 08:43:33;;;;;;;128.90;24.70;;;;;;;13.18;71.52;100411.30;102142;1300;25652;-59
2024/03/04 08:45:58;;;;;;;31.80;18.00;;;;;;;12.98;72.54;100410.31;102203;1316;22578;-59
2024/03/04 08:48:27;;;;;;;36.30;17.40;;;;;;;12.81;72.56;100409.44;102791;1310;25332;-57
2024/03/04 08:50:52;;;;;;;30.60;17.20;;;;;;;12.76;71.67;100418.56;102884;1301;26324;-58
2024/03/04 08:53:30;;;;;;;;;;;;;;;;;;;;;
2024/03/04 08:56:05;;;;;;;31.20;18.60;;;;;;;12.53;70.58;100420.77;102777;1309;22915;-60
2024/03/04 08:58:32;;;;;;;24.90;16.90;;;;;;;12.50;71.43;100420.35;102804;1315;22690;-59
2024/03/04 09:01:05;;;;;;;31.70;16.80;;;;;;;12.62;70.90;100423.29;102829;1314;22579;-58
2024/03/04 09:03:51;;;;;;;20.00;15.20;;;;;;;12.59;69.30;100418.88;105062;1307;22584;-59
2024/03/04 09:06:17;;;;;;;23.30;17.60;;;;;;;12.62;69.95;100420.17;102851;1292;24242;-59
2024/03/04 09:08:52;;;;;;;108.40;20.90;;;;;;;13.24;70.87;100417.84;102926;1314;23817;-60
2024/03/04 09:11:18;;;;;;;206.40;27.50;;;;;;;14.17;68.94;100413.45;102774;1314;22594;-60
2024/03/04 09:13:55;;;;;;;;;;;;;;;;;;;;;
2024/03/04 09:16:20;;;;;;;562.10;43.70;;;;;;;14.87;66.35;100412.90;103694;1314;24254;-60
2024/03/04 09:18:46;;;;;;;453.20;43.60;;;;;;;15.00;66.93;100409.09;102905;1307;24088;-60
2024/03/04 09:21:15;;;;;;;232.60;33.60;;;;;;;15.63;66.96;100413.27;102852;1307;22579;-59
2024/03/04 09:23:41;;;;;;;267.30;34.30;;;;;;;15.69;66.72;100416.14;102894;1291;22686;-60
2024/03/04 09:26:10;;;;;;;123.60;29.90;;;;;;;15.62;66.90;100413.98;102959;1304;22759;-58
2024/03/04 09:28:38;;;;;;;88.80;20.70;;;;;;;15.44;65.44;100416.08;102769;1301;30492;-59
2024/03/04 09:31:05;;;;;;;35.70;17.60;;;;;;;14.92;64.00;100421.18;102815;1293;23337;-59
2024/03/04 09:33:30;;;;;;;20.60;17.20;;;;;;;14.38;64.52;100427.33;102844;1295;22691;-58
2024/03/04 09:35:56;;;;;;;24.40;15.20;;;;;;;13.93;64.16;100418.96;102696;1317;25449;-59
2024/03/04 09:38:22;;;;;;;24.90;16.00;;;;;;;13.79;65.80;100416.12;102892;1314;23233;-56
2024/03/04 09:40:51;;;;;;;23.00;16.40;;;;;;;14.00;64.28;100411.62;103023;1314;26558;-56
2024/03/04 09:43:20;;;;;;;27.00;17.70;;;;;;;13.78;63.89;100415.66;102944;1308;22614;-57
2024/03/04 09:45:49;;;;;;;23.20;16.80;;;;;;;13.58;63.57;100417.85;102906;1316;25702;-58
2024/03/04 09:48:16;;;;;;;22.60;15.60;;;;;;;13.34;64.07;100419.67;103747;1310;22581;-58
2024/03/04 09:50:42;;;;;;;22.40;15.70;;;;;;;13.19;63.63;100423.20;102610;1303;25372;-56
2024/03/04 09:53:09;;;;;;;28.00;17.20;;;;;;;13.06;64.09;100423.39;102810;1310;25377;-58
2024/03/04 09:55:35;;;;;;;19.90;14.90;;;;;;;13.10;63.95;100423.29;102930;1298;26759;-58
2024/03/04 09:58:01;;;;;;;28.30;16.00;;;;;;;13.22;63.13;100422.27;102892;1315;22682;-58
2024/03/04 10:00:28;;;;;;;20.20;14.90;;;;;;;13.18;62.75;100427.22;102776;1304;24270;-58
2024/03/04 10:02:55;;;;;;;22.90;16.20;;;;;;;13.01;61.87;100424.77;102979;1307;24015;-56
2024/03/04 10:05:21;;;;;;;24.30;17.10;;;;;;;12.94;62.79;100427.92;105789;1295;22701;-58
2024/03/04 10:07:48;;;;;;;22.30;17.40;;;;;;;13.27;63.14;100431.62;102835;1316;22777;-57
2024/03/04 10:10:15;;;;;;;24.20;17.30;;;;;;;13.61;61.47;100427.27;102982;1300;22732;-56
2024/03/04 10:12:50;;;;;;;22.10;17.20;;;;;;;13.67;61.94;100426.92;102911;1301;22617;-57
2024/03/04 10:15:20;;;;;;;34.60;17.70;;;;;;;14.39;63.47;100427.06;102904;1308;22572;-57
2024/03/04 10:17:45;;;;;;;47.40;20.80;;;;;;;15.84;62.46;100423.48;103250;1304;26261;-59
2024/03/04 10:20:11;;;;;;;59.50;20.70;;;;;;;17.06;60.34;100428.61;102917;1309;24463;-58
2024/03/04 10:22:41;;;;;;;218.80;28.50;;;;;;;17.94;59.84;100429.33;103024;1308;22573;-58
2024/03/04 10:25:16;;;;;;;223.10;36.40;;;;;;;18.96;61.69;100428.73;103000;1296;25670;-58
2024/03/04 10:27:47;;;;;;;173.60;28.50;;;;;;;19.74;59.49;100430.19;103664;1303;23839;-58
2024/03/04 10:30:15;;;;;;;400.70;47.50;;;;;;;19.80;56.28;100428.63;102896;1312;24408;-58
2024/03/04 10:32:48;;;;;;;125.50;31.60;;;;;;;19.25;56.39;100428.75;100618;1315;3479854;-57
2024/03/04 10:35:16;;;;;;;265.00;40.10;;;;;;;18.62;54.77;100430.73;102971;1298;25354;-58
2024/03/04 10:37:52;;;;;;;185.00;30.60;;;;;;;17.48;55.99;100431.01;103016;1307;24469;-57
2024/03/04 10:40:20;;;;;;;52.20;22.80;;;;;;;16.80;57.02;100433.48;102998;1308;24477;-57
2024/03/04 10:42:46;;;;;;;103.10;23.40;;;;;;;16.94;56.78;100433.90;103510;1310;23327;-58
2024/03/04 10:45:15;;;;;;;116.40;26.30;;;;;;;16.79;57.14;100435.27;102646;1295;24316;-57
2024/03/04 10:47:44;;;;;;;139.30;31.90;;;;;;;16.92;58.32;100430.86;102934;1297;24469;-58
2024/03/04 10:50:15;;;;;;;171.40;29.10;;;;;;;17.25;57.33;100432.46;104667;1307;22579;-57
2024/03/04 10:52:43;;;;;;;115.50;32.20;;;;;;;18.21;58.22;100426.73;103008;1314;26972;-58
2024/03/04 10:55:38;;;;;;;232.50;35.30;;;;;;;19.26;55.96;100419.77;102991;1308;22569;-57
2024/03/04 10:58:05;;;;;;;369.30;45.30;;;;;;;19.71;55.55;100423.66;101713;1316;411963;-56
2024/03/04 11:00:35;;;;;;;402.30;42.50;;;;;;;20.26;53.55;100414.54;103064;1322;22591;-58
2024/03/04 11:03:12;;;;;;;278.70;38.70;;;;;;;20.43;52.49;100415.23;102234;1323;25387;-58
2024/03/04 11:05:59;;;;;;;413.80;46.50;;;;;;;20.64;51.02;100413.86;102157;1306;22878;-58
2024/03/04 11:08:41;;;;;;;378.50;39.60;;;;;;;21.06;51.63;100412.95;102210;1309;22645;-58
2024/03/04 11:11:32;;;;;;;324.20;46.80;;;;;;;21.45;49.80;100407.11;101984;1322;22597;-56